createdAt,value
2023-02-08T00:01:25.205Z,58.00
2023-02-08T00:03:53.959Z,68.70
2023-02-08T00:06:22.269Z,44.20
2023-02-08T00:08:51.244Z,50.40
2023-02-08T00:11:19.562Z,89.30
2023-02-08T00:13:48.201Z,84.50
2023-02-08T00:16:16.624Z,94.90
2023-02-08T00:18:45.366Z,83.90
2023-02-08T00:21:15.935Z,79.30
2023-02-08T00:23:46.652Z,90.60
2023-02-08T00:26:15.169Z,62.00
2023-02-08T00:28:44.444Z,61.90
2023-02-08T00:31:12.988Z,63.30
2023-02-08T00:33:42.815Z,74.00
2023-02-08T00:36:11.496Z,65.90
2023-02-08T00:38:45.870Z,75.80
2023-02-08T00:41:14.528Z,80.60
2023-02-08T00:43:45.630Z,85.60
2023-02-08T00:46:15.577Z,77.30
2023-02-08T00:48:47.490Z,75.10
2023-02-08T00:51:16.066Z,51.30
2023-02-08T00:53:45.571Z,59.20
2023-02-08T00:56:14.740Z,52.00
2023-02-08T00:58:44.342Z,54.60
2023-02-08T01:01:12.893Z,76.60
2023-02-08T01:03:42.080Z,70.40
2023-02-08T01:06:18.067Z,80.90
2023-02-08T01:08:47.067Z,58.90
2023-02-08T01:11:22.582Z,80.50
2023-02-08T01:13:53.403Z,88.10
2023-02-08T01:16:25.425Z,75.20
2023-02-08T01:18:55.747Z,66.70
2023-02-08T01:21:27.658Z,63.00
2023-02-08T01:23:56.179Z,60.50
2023-02-08T01:26:24.876Z,62.70
2023-02-08T01:28:53.846Z,82.30
2023-02-08T01:31:24.992Z,51.20
2023-02-08T01:33:53.832Z,58.70
2023-02-08T01:36:22.873Z,57.40
2023-02-08T01:38:51.658Z,43.00
2023-02-08T01:41:29.490Z,56.80
2023-02-08T01:44:12.696Z,36.60
2023-02-08T01:46:51.806Z,35.50
2023-02-08T01:49:23.014Z,38.50
2023-02-08T01:52:12.628Z,42.10
2023-02-08T01:54:45.115Z,39.20
2023-02-08T01:57:13.496Z,48.10
2023-02-08T01:59:50.628Z,43.40
2023-02-08T02:02:21.150Z,46.20
2023-02-08T02:04:49.980Z,52.30
2023-02-08T02:07:18.862Z,66.80
2023-02-08T02:09:56.684Z,71.70
2023-02-08T02:12:30.719Z,69.50
2023-02-08T02:14:59.122Z,77.00
2023-02-08T02:17:27.535Z,95.60
2023-02-08T02:20:28.145Z,66.20
2023-02-08T02:23:20.169Z,65.60
2023-02-08T02:26:07.196Z,58.30
2023-02-08T02:29:06.126Z,64.60
2023-02-08T02:31:52.938Z,83.20
2023-02-08T02:34:41.164Z,63.90
2023-02-08T02:37:32.281Z,50.30
2023-02-08T02:40:14.740Z,46.70
2023-02-08T02:43:05.941Z,50.30
2023-02-08T02:45:40.671Z,53.20
2023-02-08T02:48:22.683Z,57.20
2023-02-08T02:51:00.695Z,66.00
2023-02-08T02:53:50.764Z,51.80
2023-02-08T02:56:22.423Z,66.20
2023-02-08T02:58:50.736Z,64.60
2023-02-08T03:01:26.349Z,71.50
2023-02-08T03:03:55.078Z,70.20
2023-02-08T03:06:32.669Z,92.90
2023-02-08T03:09:07.868Z,69.50
2023-02-08T03:11:37.145Z,75.60
2023-02-08T03:14:11.137Z,57.20
2023-02-08T03:17:05.530Z,51.80
2023-02-08T03:20:01.002Z,55.00
2023-02-08T03:22:34.693Z,61.80
2023-02-08T03:25:07.201Z,91.30
2023-02-08T03:27:41.695Z,76.10
2023-02-08T03:30:16.833Z,69.30
2023-02-08T03:33:07.133Z,72.20
2023-02-08T03:35:58.976Z,59.20
2023-02-08T03:38:33.408Z,58.20
2023-02-08T03:41:02.690Z,57.30
2023-02-08T03:43:40.666Z,57.00
2023-02-08T03:46:11.180Z,44.60
2023-02-08T03:48:41.870Z,45.40
2023-02-08T03:51:10.371Z,54.80
2023-02-08T03:53:40.726Z,52.80
2023-02-08T03:56:12.977Z,57.20
2023-02-08T03:58:47.055Z,65.00
2023-02-08T04:01:22.498Z,56.40
2023-02-08T04:03:53.644Z,47.70
2023-02-08T04:06:22.113Z,47.60
2023-02-08T04:08:50.874Z,51.80
2023-02-08T04:11:21.934Z,55.90
2023-02-08T04:13:50.615Z,62.90
2023-02-08T04:16:18.898Z,59.40
2023-02-08T04:18:47.633Z,53.30
2023-02-08T04:21:16.176Z,66.00
2023-02-08T04:23:44.683Z,72.30
2023-02-08T04:26:13.063Z,82.60
2023-02-08T04:28:41.708Z,72.80
2023-02-08T04:31:10.548Z,73.10
2023-02-08T04:33:39.489Z,44.40
2023-02-08T04:36:08.291Z,58.20
2023-02-08T04:38:36.994Z,66.70
2023-02-08T04:41:05.661Z,64.10
2023-02-08T04:43:33.985Z,58.60
2023-02-08T04:46:02.755Z,59.90
2023-02-08T04:48:31.250Z,60.20
2023-02-08T04:51:00.863Z,59.30
2023-02-08T04:53:29.291Z,73.50
2023-02-08T04:55:57.750Z,57.60
2023-02-08T04:58:26.204Z,50.70
2023-02-08T05:00:54.693Z,57.40
2023-02-08T05:03:22.996Z,67.90
2023-02-08T05:06:00.875Z,75.10
2023-02-08T05:08:30.071Z,63.60
2023-02-08T05:10:58.744Z,59.20
2023-02-08T05:13:27.132Z,62.50
2023-02-08T05:15:56.136Z,48.50
2023-02-08T05:18:25.983Z,47.40
2023-02-08T05:20:56.048Z,42.70
2023-02-08T05:23:24.720Z,44.00
2023-02-08T05:25:53.062Z,61.40
2023-02-08T05:28:21.545Z,62.30
2023-02-08T05:30:50.299Z,79.40
2023-02-08T05:33:19.087Z,84.70
2023-02-08T05:35:47.445Z,64.10
2023-02-08T05:38:15.984Z,109.30
2023-02-08T05:40:44.707Z,96.80
2023-02-08T05:43:12.984Z,108.70
2023-02-08T05:45:41.664Z,83.10
2023-02-08T05:48:10.460Z,80.30
2023-02-08T05:50:39.606Z,72.50
2023-02-08T05:53:11.080Z,106.70
2023-02-08T05:55:39.515Z,146.60
2023-02-08T05:58:08.017Z,242.70
2023-02-08T06:00:38.397Z,213.00
2023-02-08T06:03:07.124Z,187.40
2023-02-08T06:05:38.173Z,145.10
2023-02-08T06:08:06.588Z,124.60
2023-02-08T06:10:35.230Z,78.00
2023-02-08T06:13:04.468Z,85.90
2023-02-08T06:15:33.383Z,84.80
2023-02-08T06:18:01.897Z,71.20
2023-02-08T06:20:32.546Z,67.60
2023-02-08T06:23:01.830Z,53.00
2023-02-08T06:25:30.251Z,42.50
2023-02-08T06:27:58.515Z,50.40
2023-02-08T06:30:26.889Z,39.90
2023-02-08T06:32:55.309Z,44.10
2023-02-08T06:35:23.778Z,41.90
2023-02-08T06:37:52.565Z,52.30
2023-02-08T06:40:21.142Z,46.80
2023-02-08T06:42:49.621Z,45.10
2023-02-08T06:45:18.272Z,51.90
2023-02-08T06:47:46.781Z,52.30
2023-02-08T06:50:15.519Z,52.50
2023-02-08T06:52:44.731Z,60.10
2023-02-08T06:55:13.193Z,58.40
2023-02-08T06:57:42.590Z,65.20
2023-02-08T07:00:11.497Z,69.70
2023-02-08T07:02:40.101Z,61.90
2023-02-08T07:05:08.952Z,80.00
2023-02-08T07:07:38.382Z,70.40
2023-02-08T07:10:06.926Z,79.10
2023-02-08T07:12:37.140Z,95.30
2023-02-08T07:15:05.836Z,82.50
2023-02-08T07:17:34.508Z,82.60
2023-02-08T07:20:03.349Z,81.20
2023-02-08T07:22:31.999Z,66.90
2023-02-08T07:25:00.592Z,64.60
2023-02-08T07:27:29.150Z,77.80
2023-02-08T07:29:57.560Z,68.40
2023-02-08T07:32:25.932Z,83.80
2023-02-08T07:34:56.960Z,93.10
2023-02-08T07:37:25.755Z,73.80
2023-02-08T07:39:54.211Z,112.70
2023-02-08T07:42:22.626Z,98.10
2023-02-08T07:44:57.044Z,82.80
2023-02-08T07:47:25.397Z,87.60
2023-02-08T07:49:53.766Z,70.60
2023-02-08T07:52:22.069Z,80.80
2023-02-08T07:54:50.440Z,66.90
2023-02-08T07:57:21.356Z,72.30
2023-02-08T07:59:49.750Z,48.40
2023-02-08T08:02:18.884Z,45.10
2023-02-08T08:04:47.530Z,68.40
2023-02-08T08:07:16.031Z,110.30
2023-02-08T08:09:44.946Z,107.50
2023-02-08T08:12:13.414Z,74.90
2023-02-08T08:14:41.847Z,83.20
2023-02-08T08:17:10.185Z,74.60
2023-02-08T08:19:38.558Z,55.70
2023-02-08T08:22:07.092Z,54.30
2023-02-08T08:24:35.930Z,58.20
2023-02-08T08:27:05.210Z,41.00
2023-02-08T08:29:34.382Z,52.30
2023-02-08T08:32:03.428Z,46.80
2023-02-08T08:34:31.986Z,39.20
2023-02-08T08:37:01.189Z,40.50
2023-02-08T08:39:29.690Z,41.60
2023-02-08T08:41:59.345Z,43.20
2023-02-08T08:44:28.333Z,74.10
2023-02-08T08:46:57.448Z,58.40
2023-02-08T08:49:26.218Z,48.30
2023-02-08T08:51:54.939Z,74.40
2023-02-08T08:54:23.713Z,84.80
2023-02-08T08:56:52.951Z,79.80
2023-02-08T08:59:21.616Z,68.20
2023-02-08T09:01:51.042Z,91.20
2023-02-08T09:04:22.891Z,75.40
2023-02-08T09:06:51.765Z,75.20
2023-02-08T09:09:20.526Z,57.50
2023-02-08T09:11:49.416Z,60.60
2023-02-08T09:14:18.311Z,48.80
2023-02-08T09:16:48.259Z,49.10
2023-02-08T09:19:16.904Z,44.50
2023-02-08T09:21:45.315Z,47.50
2023-02-08T09:24:14.454Z,43.60
2023-02-08T09:26:42.846Z,39.10
2023-02-08T09:29:11.195Z,35.00
2023-02-08T09:31:39.912Z,39.90
2023-02-08T09:34:09.754Z,42.10
2023-02-08T09:36:39.502Z,42.60
2023-02-08T09:39:13.904Z,39.60
2023-02-08T09:41:57.443Z,38.80
2023-02-08T09:44:31.825Z,44.60
2023-02-08T09:47:04.425Z,34.20
2023-02-08T09:49:46.999Z,41.30
2023-02-08T09:52:16.994Z,42.30
2023-02-08T09:54:49.258Z,41.20
2023-02-08T09:57:20.688Z,42.20
2023-02-08T09:59:54.530Z,47.50
2023-02-08T10:02:32.911Z,42.80
2023-02-08T10:05:12.276Z,45.40
2023-02-08T10:07:41.721Z,54.70
2023-02-08T10:10:55.062Z,62.70
2023-02-08T10:13:40.550Z,61.20
2023-02-08T10:16:17.255Z,52.40
2023-02-08T10:18:51.245Z,50.40
2023-02-08T10:21:41.778Z,37.10
2023-02-08T10:24:16.289Z,31.60
2023-02-08T10:26:48.621Z,30.30
2023-02-08T10:29:24.292Z,38.50
2023-02-08T10:31:52.824Z,34.00
2023-02-08T10:34:39.411Z,43.60
2023-02-08T10:37:21.831Z,38.60
2023-02-08T10:39:51.042Z,28.00
2023-02-08T10:42:23.649Z,35.60
2023-02-08T10:44:52.074Z,31.80
2023-02-08T10:47:45.145Z,32.30
2023-02-08T10:50:34.719Z,34.50
2023-02-08T10:53:04.018Z,35.40
2023-02-08T10:55:35.371Z,34.30
2023-02-08T10:58:13.833Z,34.10
2023-02-08T11:00:42.402Z,29.30
2023-02-08T11:03:19.369Z,31.50
2023-02-08T11:05:47.828Z,31.40
2023-02-08T11:08:21.401Z,28.50
2023-02-08T11:10:57.804Z,27.80
2023-02-08T11:13:34.753Z,33.70
2023-02-08T11:16:10.216Z,22.80
2023-02-08T11:18:48.628Z,34.40
2023-02-08T11:21:33.383Z,48.10
2023-02-08T11:24:27.370Z,50.70
2023-02-08T11:26:56.679Z,46.50
2023-02-08T11:29:29.731Z,45.30
2023-02-08T11:32:00.946Z,51.60
2023-02-08T11:34:34.836Z,33.40
2023-02-08T11:37:04.940Z,29.50
2023-02-08T11:39:40.735Z,36.20
2023-02-08T11:42:19.969Z,32.70
2023-02-08T11:44:49.042Z,44.60
2023-02-08T11:47:23.146Z,44.40
2023-02-08T11:49:56.788Z,38.50
2023-02-08T11:52:28.057Z,27.70
2023-02-08T11:55:17.533Z,24.10
2023-02-08T11:58:23.608Z,37.20
2023-02-08T12:01:20.352Z,35.60
2023-02-08T12:03:50.489Z,29.90
2023-02-08T12:06:57.596Z,41.10
2023-02-08T12:09:44.998Z,27.10
2023-02-08T12:12:19.490Z,35.50
2023-02-08T12:15:23.199Z,29.80
2023-02-08T12:18:18.851Z,26.20
2023-02-08T12:20:47.804Z,35.40
2023-02-08T12:23:32.492Z,40.50
2023-02-08T12:26:10.014Z,47.10
2023-02-08T12:29:19.446Z,34.30
2023-02-08T12:32:15.911Z,27.00
2023-02-08T12:35:33.253Z,31.20
2023-02-08T12:38:36.823Z,21.00
2023-02-08T12:41:08.884Z,25.80
2023-02-08T12:43:41.073Z,35.30
2023-02-08T12:46:31.062Z,34.00
2023-02-08T12:49:20.921Z,37.90
2023-02-08T12:52:13.400Z,32.50
2023-02-08T12:54:51.142Z,36.20
2023-02-08T12:57:21.263Z,38.80
2023-02-08T12:59:59.823Z,41.60
2023-02-08T13:02:32.426Z,42.50
2023-02-08T13:05:04.393Z,67.50
2023-02-08T13:07:38.968Z,65.30
2023-02-08T13:10:13.588Z,107.00
2023-02-08T13:12:48.204Z,98.90
2023-02-08T13:15:30.700Z,118.80
2023-02-08T13:18:02.921Z,85.00
2023-02-08T13:20:46.425Z,51.60
2023-02-08T13:23:34.762Z,57.60
2023-02-08T13:26:28.227Z,74.20
2023-02-08T13:29:00.996Z,81.60
2023-02-08T13:34:08.591Z,38.90
2023-02-08T13:36:38.374Z,52.00
2023-02-08T13:39:09.161Z,47.10
2023-02-08T13:41:37.676Z,56.10
2023-02-08T13:44:18.839Z,48.60
2023-02-08T13:46:48.636Z,52.20
2023-02-08T13:49:42.019Z,67.30
2023-02-08T13:52:11.670Z,84.30
2023-02-08T13:54:40.140Z,100.50
2023-02-08T13:57:51.496Z,70.20
2023-02-08T14:00:33.815Z,141.30
2023-02-08T14:03:08.231Z,115.60
2023-02-08T14:05:46.623Z,94.50
2023-02-08T14:08:21.428Z,98.00
2023-02-08T14:11:01.675Z,109.50
2023-02-08T14:13:35.708Z,76.20
2023-02-08T14:16:28.541Z,87.10
2023-02-08T14:19:24.605Z,80.10
2023-02-08T14:22:11.077Z,61.80
2023-02-08T14:24:50.398Z,67.60
2023-02-08T14:27:38.939Z,72.60
2023-02-08T14:30:16.439Z,96.20
2023-02-08T14:32:48.036Z,93.50
2023-02-08T14:35:18.376Z,101.60
2023-02-08T14:37:47.038Z,87.40
2023-02-08T14:40:23.023Z,73.60
2023-02-08T14:42:58.342Z,75.80
2023-02-08T14:45:31.264Z,83.10
2023-02-08T14:48:10.024Z,61.40
2023-02-08T14:50:40.423Z,60.40
2023-02-08T14:53:11.776Z,70.10
2023-02-08T14:55:51.462Z,85.40
2023-02-08T14:58:31.345Z,93.90
2023-02-08T15:01:02.242Z,92.00
2023-02-08T15:03:31.516Z,121.40
2023-02-08T15:06:20.089Z,125.50
2023-02-08T15:08:52.406Z,121.80
2023-02-08T15:11:25.859Z,135.90
2023-02-08T15:13:55.356Z,103.90
2023-02-08T15:16:25.803Z,101.40
2023-02-08T15:18:54.451Z,72.80
2023-02-08T15:21:26.584Z,88.00
2023-02-08T15:24:08.141Z,82.10
2023-02-08T15:26:37.361Z,90.30
2023-02-08T15:29:21.027Z,98.50
2023-02-08T15:31:49.465Z,111.00
2023-02-08T15:34:18.708Z,96.40
2023-02-08T15:36:52.092Z,99.30
2023-02-08T15:39:29.880Z,98.30
2023-02-08T15:41:59.394Z,104.10
2023-02-08T15:44:34.321Z,91.40
2023-02-08T15:47:04.924Z,67.50
2023-02-08T15:49:38.274Z,82.20
2023-02-08T15:52:06.852Z,86.40
2023-02-08T15:54:35.270Z,81.60
2023-02-08T16:01:28.518Z,89.30
2023-02-08T16:03:58.636Z,102.10
2023-02-08T16:06:31.707Z,90.40
2023-02-08T16:09:01.894Z,83.40
2023-02-08T16:11:31.771Z,83.40
2023-02-08T16:14:02.134Z,81.00
2023-02-08T16:16:42.107Z,97.30
2023-02-08T16:19:26.808Z,104.00
2023-02-08T16:21:57.406Z,113.40
2023-02-08T16:24:28.712Z,129.20
2023-02-08T16:26:57.112Z,105.70
2023-02-08T16:29:28.189Z,114.80
2023-02-08T16:32:21.547Z,95.40
2023-02-08T16:34:50.632Z,79.70
2023-02-08T16:37:33.199Z,77.40
2023-02-08T16:40:03.211Z,80.40
2023-02-08T16:42:37.037Z,83.70
2023-02-08T16:45:09.470Z,96.20
2023-02-08T16:47:51.814Z,93.60
2023-02-08T16:50:24.714Z,87.80
2023-02-08T16:53:03.581Z,65.20
2023-02-08T16:55:32.586Z,66.80
2023-02-08T16:58:01.172Z,50.00
2023-02-08T17:00:32.834Z,50.50
2023-02-08T17:03:01.269Z,51.20
2023-02-08T17:05:31.841Z,57.40
2023-02-08T17:08:00.989Z,62.10
2023-02-08T17:10:31.676Z,73.40
2023-02-08T17:13:19.788Z,70.70
2023-02-08T17:15:50.384Z,75.20
2023-02-08T17:18:20.054Z,91.40
2023-02-08T17:20:57.658Z,111.70
2023-02-08T17:23:26.662Z,136.00
2023-02-08T17:25:55.264Z,126.30
2023-02-08T17:28:23.780Z,107.10
2023-02-08T17:30:53.572Z,84.80
2023-02-08T17:33:22.004Z,93.70
2023-02-08T17:35:51.774Z,74.80
2023-02-08T17:38:20.722Z,63.80
2023-02-08T17:40:49.049Z,64.20
2023-02-08T17:43:17.577Z,56.90
2023-02-08T17:45:46.487Z,56.80
2023-02-08T17:48:15.567Z,45.10
2023-02-08T17:50:47.201Z,45.70
2023-02-08T17:53:16.132Z,45.50
2023-02-08T17:55:45.941Z,60.50
2023-02-08T17:58:14.594Z,49.20
2023-02-08T18:00:43.097Z,53.40
2023-02-08T18:03:12.346Z,50.50
2023-02-08T18:05:40.846Z,57.20
2023-02-08T18:08:09.453Z,63.80
2023-02-08T18:10:39.619Z,73.20
2023-02-08T18:13:08.159Z,110.70
2023-02-08T18:15:36.524Z,97.00
2023-02-08T18:18:05.640Z,87.80
2023-02-08T18:20:34.232Z,96.20
2023-02-08T18:23:02.874Z,105.30
2023-02-08T18:25:31.574Z,98.60
2023-02-08T18:28:00.618Z,93.20
2023-02-08T18:30:29.337Z,69.30
2023-02-08T18:32:57.759Z,59.60
2023-02-08T18:35:26.766Z,47.00
2023-02-08T18:37:55.186Z,53.90
2023-02-08T18:40:23.895Z,52.10
2023-02-08T18:42:52.181Z,52.10
2023-02-08T18:45:20.961Z,56.60
2023-02-08T18:47:49.269Z,56.60
2023-02-08T18:50:18.000Z,57.10
2023-02-08T18:52:48.218Z,51.70
2023-02-08T18:55:16.778Z,47.00
2023-02-08T18:57:47.381Z,48.80
2023-02-08T19:00:16.372Z,49.70
2023-02-08T19:02:46.341Z,46.50
2023-02-08T19:05:14.626Z,40.50
2023-02-08T19:07:43.265Z,59.40
2023-02-08T19:10:11.632Z,109.00
2023-02-08T19:12:40.191Z,169.90
2023-02-08T19:15:09.627Z,128.50
2023-02-08T19:17:38.130Z,181.80
2023-02-08T19:20:07.391Z,180.90
2023-02-08T19:22:36.038Z,171.90
2023-02-08T19:25:04.796Z,116.30
2023-02-08T19:27:33.661Z,80.50
2023-02-08T19:30:02.070Z,72.70
2023-02-08T19:32:30.997Z,54.20
2023-02-08T19:34:59.678Z,46.90
2023-02-08T19:37:28.383Z,52.00
2023-02-08T19:39:57.219Z,46.80
2023-02-08T19:42:25.743Z,47.30
2023-02-08T19:44:54.180Z,45.70
2023-02-08T19:47:43.335Z,70.30
2023-02-08T19:50:14.337Z,58.00
2023-02-08T19:52:43.767Z,36.10
2023-02-08T19:55:12.169Z,54.50
2023-02-08T19:57:40.633Z,47.10
2023-02-08T20:00:22.550Z,47.00
2023-02-08T20:02:52.424Z,61.00
2023-02-08T20:05:21.037Z,69.80
2023-02-08T20:07:49.316Z,82.60
2023-02-08T20:10:17.993Z,81.80
2023-02-08T20:12:47.209Z,65.60
2023-02-08T20:15:16.022Z,77.40
2023-02-08T20:17:45.929Z,67.10
2023-02-08T20:20:14.749Z,60.10
2023-02-08T20:22:43.188Z,94.70
2023-02-08T20:25:11.759Z,95.30
2023-02-08T20:27:40.230Z,78.60
2023-02-08T20:30:09.407Z,76.70
2023-02-08T20:32:40.087Z,75.50
2023-02-08T20:35:08.752Z,59.10
2023-02-08T20:37:38.377Z,51.50
2023-02-08T20:40:07.269Z,49.80
2023-02-08T20:42:36.350Z,72.50
2023-02-08T20:45:05.658Z,62.10
2023-02-08T20:47:46.442Z,69.90
2023-02-08T20:50:19.018Z,61.80
2023-02-08T20:52:49.300Z,65.30
2023-02-08T20:55:17.867Z,62.10
2023-02-08T20:57:46.335Z,72.40
2023-02-08T21:00:15.078Z,108.70
2023-02-08T21:02:43.577Z,136.20
2023-02-08T21:05:11.992Z,129.40
2023-02-08T21:07:41.367Z,122.50
2023-02-08T21:10:09.818Z,92.50
2023-02-08T21:12:38.232Z,75.60
2023-02-08T21:15:07.621Z,76.00
2023-02-08T21:17:41.290Z,65.40
2023-02-08T21:20:10.330Z,51.40
2023-02-08T21:22:39.503Z,56.20
2023-02-08T21:25:09.536Z,57.60
2023-02-08T21:27:38.421Z,49.20
2023-02-08T21:30:07.594Z,58.30
2023-02-08T21:32:36.136Z,58.30
2023-02-08T21:35:05.161Z,49.00
2023-02-08T21:37:34.248Z,61.00
2023-02-08T21:40:02.848Z,63.50
2023-02-08T21:42:31.360Z,55.00
2023-02-08T21:44:59.884Z,82.30
2023-02-08T21:47:28.214Z,96.00
2023-02-08T21:50:15.591Z,107.70
2023-02-08T21:53:03.498Z,80.00
2023-02-08T21:55:32.196Z,65.60
2023-02-08T21:58:00.493Z,71.90
2023-02-08T22:00:28.896Z,63.10
2023-02-08T22:02:57.243Z,55.40
2023-02-08T22:05:44.773Z,53.30
2023-02-08T22:08:13.370Z,41.30
2023-02-08T22:10:50.140Z,41.90
2023-02-08T22:13:25.833Z,37.50
2023-02-08T22:15:54.394Z,40.20
2023-02-08T22:18:22.886Z,41.00
2023-02-08T22:20:54.738Z,55.80
2023-02-08T22:23:23.114Z,58.10
2023-02-08T22:25:53.055Z,66.40
2023-02-08T22:28:21.647Z,71.40
2023-02-08T22:30:50.213Z,78.80
2023-02-08T22:33:18.527Z,88.10
2023-02-08T22:35:46.909Z,77.40
2023-02-08T22:38:15.215Z,64.40
2023-02-08T22:40:44.385Z,75.50
2023-02-08T22:43:13.076Z,85.60
2023-02-08T22:45:42.603Z,117.10
2023-02-08T22:48:11.120Z,96.60
2023-02-08T22:50:39.542Z,124.90
2023-02-08T22:53:08.220Z,122.00
2023-02-08T22:55:36.758Z,117.50
2023-02-08T22:58:05.487Z,97.20
2023-02-08T23:00:33.822Z,85.60
2023-02-08T23:03:02.208Z,75.00
2023-02-08T23:05:30.502Z,74.40
2023-02-08T23:07:58.917Z,67.70
2023-02-08T23:10:27.318Z,59.20
2023-02-08T23:12:56.001Z,71.60
2023-02-08T23:15:24.406Z,58.50
2023-02-08T23:17:53.121Z,101.40
2023-02-08T23:20:21.579Z,59.60
2023-02-08T23:22:49.995Z,64.30
2023-02-08T23:25:18.510Z,81.20
2023-02-08T23:27:47.026Z,78.90
2023-02-08T23:30:15.485Z,61.60
2023-02-08T23:32:44.350Z,77.30
2023-02-08T23:35:12.736Z,68.20
2023-02-08T23:37:41.483Z,86.60
2023-02-08T23:40:11.024Z,75.80
2023-02-08T23:42:40.237Z,67.50
2023-02-08T23:45:08.833Z,82.50
2023-02-08T23:47:38.168Z,77.50
2023-02-08T23:50:07.584Z,102.50
2023-02-08T23:52:37.057Z,114.90
2023-02-08T23:55:06.052Z,106.40
2023-02-08T23:57:35.682Z,81.70
